Armona, California
Current Conditions -  °F | °C
As of 10:53 PM on Friday 19 Dec 2014 (Local Time) from KHJO Reporting Station
Overcast Overcast  
Wind Chill: 11°   Ceiling: 12000
Heat Index: 11°   Visibility: 8mi
Dew Point:   Wind: 3mph
Humidity: 86%   Direction: 120°ESE
Pressure: 30.22"   Gusts: NA
Location:  36.32°N, 119.71°W
Report Text: KHJO 200653Z AUTO 12003KT 8SM SCT095 OVC120 11/08 A3022 RMK AO2 SLP236 T01060083
Loading
Personal Weather Stations






























Interactive Weather Map New forecast layout! Learn more

10-Day Weather Forecast

Advertisements
Track Severe Weather on mobile